Observation data for Gail on 09/13/2017      Previous  Date  Next       Current Mesonet Observations  Soil Data  Daily Summary Page  Observations in Plain Language
KGGS 130500Z 08003KT 21/10 A2991 RMK A01 T02100097  RH  050%=      5-min Rain = 0
KGGS 130505Z 08003KT 21/10 A2991 RMK A01 T02080097  RH  050%=      5-min Rain = 0
KGGS 130510Z 08003KT 21/10 A2991 RMK A01 T02080096  RH  050%=      5-min Rain = 0
KGGS 130515Z 08003KT 21/10 A2991 RMK A01 T02110097  RH  050%=      5-min Rain = 0
KGGS 130520Z 08002KT 21/10 A2991 RMK A01 T02090097  RH  050%=      5-min Rain = 0
KGGS 130525Z 09002KT 21/10 A2991 RMK A01 T02080097  RH  051%=      5-min Rain = 0
KGGS 130530Z 08002KT 21/10 A2991 RMK A01 T02060096  RH  051%=      5-min Rain = 0
KGGS 130535Z 07002KT 20/10 A2991 RMK A01 T02030096  RH  052%=      5-min Rain = 0
KGGS 130540Z 07002KT 20/10 A2991 RMK A01 T02000096  RH  053%=      5-min Rain = 0
KGGS 130545Z 07002KT 20/10 A2991 RMK A01 T01970096  RH  054%=      5-min Rain = 0
KGGS 130550Z 06001KT 20/10 A2991 RMK A01 T01950096  RH  054%=      5-min Rain = 0
KGGS 130555Z 05001KT 20/10 A2991 RMK A01 T01960096  RH  054%=      5-min Rain = 0
KGGS 130600Z 01001KT 20/10 A2991 RMK A01 T01980097  RH  054%=      5-min Rain = 0
KGGS 130605Z 34002KT 20/10 A2991 RMK A01 T01970098  RH  054%=      5-min Rain = 0
KGGS 130610Z 33002KT 20/10 A2991 RMK A01 T01950097  RH  055%=      5-min Rain = 0
KGGS 130615Z 32002KT 20/10 A2991 RMK A01 T02000097  RH  053%=      5-min Rain = 0
KGGS 130620Z 32002KT 20/10 A2991 RMK A01 T02030097  RH  052%=      5-min Rain = 0
KGGS 130625Z 33001KT 20/10 A2991 RMK A01 T02040097  RH  052%=      5-min Rain = 0
KGGS 130630Z 02001KT 20/10 A2991 RMK A01 T01970100  RH  055%=      5-min Rain = 0
KGGS 130635Z 02002KT 19/10 A2991 RMK A01 T01910099  RH  057%=      5-min Rain = 0
KGGS 130640Z 01002KT 19/10 A2991 RMK A01 T01890099  RH  058%=      5-min Rain = 0
KGGS 130645Z 35002KT 19/10 A2991 RMK A01 T01910100  RH  057%=      5-min Rain = 0
KGGS 130650Z 35002KT 19/10 A299 RMK A01 T01920099  RH  057%=      5-min Rain = 0
KGGS 130655Z 02002KT 19/10 A299 RMK A01 T01900099  RH  057%=      5-min Rain = 0
KGGS 130700Z 04002KT 19/10 A299 RMK A01 T01870099  RH  059%=      5-min Rain = 0
KGGS 130705Z 03002KT 19/10 A299 RMK A01 T01900098  RH  057%=      5-min Rain = 0
KGGS 130710Z 00002KT 19/10 A299 RMK A01 T01920097  RH  056%=      5-min Rain = 0
KGGS 130715Z 36001KT 19/10 A299 RMK A01 T01940096  RH  055%=      5-min Rain = 0
KGGS 130720Z 35001KT 19/10 A299 RMK A01 T01940095  RH  054%=      5-min Rain = 0
KGGS 130725Z 34001KT 19/10 A299 RMK A01 T01930095  RH  055%=      5-min Rain = 0
KGGS 130730Z 33001KT 19/09 A299 RMK A01 T01910094  RH  055%=      5-min Rain = 0
KGGS 130735Z 32002KT 19/09 A299 RMK A01 T01900093  RH  055%=      5-min Rain = 0
KGGS 130740Z 31002KT 19/09 A299 RMK A01 T01920093  RH  054%=      5-min Rain = 0
KGGS 130745Z 31003KT 19/09 A2991 RMK A01 T01930093  RH  054%=      5-min Rain = 0
KGGS 130750Z 33002KT 19/10 A299 RMK A01 T01900095  RH  056%=      5-min Rain = 0
KGGS 130755Z 33002KT 19/10 A299 RMK A01 T01850096  RH  058%=      5-min Rain = 0
KGGS 130800Z 33002KT 18/10 A299 RMK A01 T01830096  RH  059%=      5-min Rain = 0
KGGS 130805Z 33002KT 18/10 A299 RMK A01 T01830097  RH  059%=      5-min Rain = 0
KGGS 130810Z 33002KT 18/10 A299 RMK A01 T01840095  RH  058%=      5-min Rain = 0
KGGS 130815Z 33002KT 19/10 A299 RMK A01 T01870096  RH  057%=      5-min Rain = 0
KGGS 130820Z 33001KT 19/10 A299 RMK A01 T01880099  RH  058%=      5-min Rain = 0
KGGS 130825Z 02001KT 19/10 A299 RMK A01 T01880101  RH  059%=      5-min Rain = 0
KGGS 130830Z 04002KT 19/10 A2989 RMK A01 T01860098  RH  059%=      5-min Rain = 0
KGGS 130835Z 05002KT 19/09 A2989 RMK A01 T01850094  RH  057%=      5-min Rain = 0
KGGS 130840Z 05003KT 19/09 A2989 RMK A01 T01880093  RH  056%=      5-min Rain = 0
KGGS 130845Z 01002KT 19/09 A2989 RMK A01 T01910091  RH  054%=      5-min Rain = 0
KGGS 130850Z 32003KT 19/09 A2989 RMK A01 T01880092  RH  055%=      5-min Rain = 0
KGGS 130855Z 32003KT 18/09 A2989 RMK A01 T01820093  RH  057%=      5-min Rain = 0
KGGS 130900Z 33003KT 18/09 A2989 RMK A01 T01840092  RH  057%=      5-min Rain = 0
KGGS 130905Z 35001KT 19/09 A2989 RMK A01 T01850091  RH  056%=      5-min Rain = 0
KGGS 130910Z 36001KT 18/09 A2989 RMK A01 T01790093  RH  059%=      5-min Rain = 0
KGGS 130915Z 06001KT 17/09 A2988 RMK A01 T01730094  RH  062%=      5-min Rain = 0
KGGS 130920Z 08002KT 17/09 A2988 RMK A01 T01710094  RH  062%=      5-min Rain = 0
KGGS 130925Z 08002KT 17/09 A2988 RMK A01 T01730090  RH  060%=      5-min Rain = 0
KGGS 130930Z 03000KT 18/09 A2989 RMK A01 T01840089  RH  055%=      5-min Rain = 0
KGGS 130935Z 35001KT 18/09 A2989 RMK A01 T01830089  RH  056%=      5-min Rain = 0
KGGS 130940Z 07001KT 18/09 A2988 RMK A01 T01770090  RH  058%=      5-min Rain = 0
KGGS 130945Z 08002KT 17/09 A2988 RMK A01 T01730089  RH  060%=      5-min Rain = 0
KGGS 130950Z 08002KT 18/09 A2988 RMK A01 T01750088  RH  058%=      5-min Rain = 0
KGGS 130955Z 09002KT 18/09 A2988 RMK A01 T01830086  RH  055%=      5-min Rain = 0
KGGS 131000Z 09002KT 19/09 A2988 RMK A01 T01860086  RH  054%=      5-min Rain = 0
KGGS 131005Z 09002KT 18/09 A2988 RMK A01 T01830086  RH  055%=      5-min Rain = 0
KGGS 131010Z 10004KT 18/09 A2988 RMK A01 T01790087  RH  056%=      5-min Rain = 0
KGGS 131015Z 10004KT 18/09 A2988 RMK A01 T01750087  RH  058%=      5-min Rain = 0
KGGS 131020Z 10004KT 18/09 A2987 RMK A01 T01750087  RH  058%=      5-min Rain = 0
KGGS 131025Z 10004KT 18/09 A2987 RMK A01 T01760087  RH  058%=      5-min Rain = 0
KGGS 131030Z 10005KT 18/09 A2987 RMK A01 T01790087  RH  057%=      5-min Rain = 0
KGGS 131035Z 11003KT 18/09 A2988 RMK A01 T01810087  RH  056%=      5-min Rain = 0
KGGS 131040Z 11003KT 18/09 A2988 RMK A01 T01800086  RH  056%=      5-min Rain = 0
KGGS 131045Z 12003KT 18/09 A2988 RMK A01 T01800086  RH  056%=      5-min Rain = 0
KGGS 131050Z 12003KT 18/09 A2988 RMK A01 T01780086  RH  056%=      5-min Rain = 0
KGGS 131055Z 13003KT 18/09 A2988 RMK A01 T01750087  RH  058%=      5-min Rain = 0
KGGS 131100Z 13004KT 17/09 A2988 RMK A01 T01730086  RH  058%=      5-min Rain = 0
KGGS 131105Z 13006KT 17/09 A2987 RMK A01 T01740087  RH  058%=      5-min Rain = 0
KGGS 131110Z 13005KT 18/09 A2987 RMK A01 T01780088  RH  057%=      5-min Rain = 0
KGGS 131115Z 12004KT 18/09 A2987 RMK A01 T01830088  RH  055%=      5-min Rain = 0
KGGS 131120Z 11003KT 19/09 A2988 RMK A01 T01850088  RH  055%=      5-min Rain = 0
KGGS 131125Z 12004KT 19/09 A2988 RMK A01 T01850088  RH  055%=      5-min Rain = 0
KGGS 131130Z 12004KT 18/09 A2987 RMK A01 T01830088  RH  056%=      5-min Rain = 0
KGGS 131135Z 14001KT 18/09 A2988 RMK A01 T01820089  RH  056%=      5-min Rain = 0
KGGS 131140Z 30001KT 17/09 A2988 RMK A01 T01720091  RH  061%=      5-min Rain = 0
KGGS 131145Z 31004KT 16/09 A2989 RMK A01 T01560092  RH  068%=      5-min Rain = 0
KGGS 131150Z 35003KT 15/09 A2989 RMK A01 T01540092  RH  069%=      5-min Rain = 0
KGGS 131155Z 13003KT 16/09 A2988 RMK A01 T01630092  RH  065%=      5-min Rain = 0
KGGS 131200Z 12004KT 17/09 A2988 RMK A01 T01660092  RH  063%=      5-min Rain = 0
KGGS 131205Z 14003KT 17/09 A2988 RMK A01 T01690091  RH  062%=      5-min Rain = 0
KGGS 131210Z 14003KT 17/09 A2988 RMK A01 T01720090  RH  060%=      5-min Rain = 0
KGGS 131215Z 13002KT 17/09 A2989 RMK A01 T01740089  RH  059%=      5-min Rain = 0
KGGS 131220Z 13001KT 17/09 A2989 RMK A01 T01740089  RH  059%=      5-min Rain = 0
KGGS 131225Z 15002KT 18/09 A2989 RMK A01 T01770087  RH  057%=      5-min Rain = 0
KGGS 131230Z 14003KT 18/09 A2989 RMK A01 T01800088  RH  057%=      5-min Rain = 0
KGGS 131235Z 13002KT 18/09 A2989 RMK A01 T01780088  RH  057%=      5-min Rain = 0
KGGS 131240Z 11002KT 18/09 A2989 RMK A01 T01750090  RH  059%=      5-min Rain = 0
KGGS 131245Z 11002KT 17/09 A2989 RMK A01 T01700092  RH  062%=      5-min Rain = 0
KGGS 131250Z 11002KT 17/09 A2989 RMK A01 T01670090  RH  062%=      5-min Rain = 0
KGGS 131255Z 05000KT 17/09 A2989 RMK A01 T01670092  RH  063%=      5-min Rain = 0
KGGS 131300Z 00003KT 17/10 A2989 RMK A01 T01660095  RH  065%=      5-min Rain = 0
KGGS 131305Z 01003KT 16/10 A299 RMK A01 T01640097  RH  067%=      5-min Rain = 0
KGGS 131310Z 03002KT 17/10 A299 RMK A01 T01670098  RH  066%=      5-min Rain = 0
KGGS 131315Z 35000KT 17/10 A299 RMK A01 T01700098  RH  065%=      5-min Rain = 0
KGGS 131320Z 24001KT 17/10 A299 RMK A01 T01710099  RH  065%=      5-min Rain = 0
KGGS 131325Z 12001KT 17/10 A299 RMK A01 T01740100  RH  064%=      5-min Rain = 0
KGGS 131330Z 06001KT 18/10 A299 RMK A01 T01820101  RH  061%=      5-min Rain = 0
KGGS 131335Z 03001KT 19/10 A299 RMK A01 T01890100  RH  058%=      5-min Rain = 0
KGGS 131340Z 04001KT 20/10 A299 RMK A01 T01950099  RH  056%=      5-min Rain = 0
KGGS 131345Z 08001KT 20/09 A299 RMK A01 T02040094  RH  051%=      5-min Rain = 0
KGGS 131350Z 11001KT 21/10 A299 RMK A01 T02110095  RH  049%=      5-min Rain = 0
KGGS 131355Z 13002KT 21/09 A299 RMK A01 T02100094  RH  049%=      5-min Rain = 0
KGGS 131400Z 13004KT 21/09 A299 RMK A01 T02140093  RH  047%=      5-min Rain = 0
KGGS 131405Z 11004KT 22/09 A299 RMK A01 T02150093  RH  047%=      5-min Rain = 0
KGGS 131410Z 13004KT 22/09 A299 RMK A01 T02170094  RH  047%=      5-min Rain = 0
KGGS 131415Z 13004KT 22/09 A299 RMK A01 T02210094  RH  046%=      5-min Rain = 0
KGGS 131420Z 12004KT 23/09 A299 RMK A01 T02260093  RH  044%=      5-min Rain = 0
KGGS 131425Z 12005KT 23/09 A299 RMK A01 T02300093  RH  043%=      5-min Rain = 0
KGGS 131430Z 13006KT 23/09 A299 RMK A01 T02300091  RH  042%=      5-min Rain = 0
KGGS 131435Z 12004KT 24/09 A299 RMK A01 T02360094  RH  042%=      5-min Rain = 0
KGGS 131440Z 12006KT 24/09 A299 RMK A01 T02390092  RH  040%=      5-min Rain = 0
KGGS 131445Z 12006KT 24/09 A2989 RMK A01 T02400092  RH  040%=      5-min Rain = 0
KGGS 131450Z 11004KT 24/09 A299 RMK A01 T02440094  RH  040%=      5-min Rain = 0
KGGS 131455Z 13005KT 25/09 A299 RMK A01 T02490094  RH  039%=      5-min Rain = 0
KGGS 131500Z 14005KT 25/09 A299 RMK A01 T02540090  RH  036%=      5-min Rain = 0
KGGS 131505Z 14006KT 26/09 A299 RMK A01 T02580091  RH  036%=      5-min Rain = 0
KGGS 131510Z 14007KT 27/09 A299 RMK A01 T02650090  RH  034%=      5-min Rain = 0
KGGS 131515Z 13006KT 27/09 A299 RMK A01 T02700088  RH  033%=      5-min Rain = 0
KGGS 131520Z 13007KT 27/09 A299 RMK A01 T02730087  RH  032%=      5-min Rain = 0
KGGS 131525Z 13008KT 27/09 A299 RMK A01 T02690086  RH  032%=      5-min Rain = 0
KGGS 131530Z 15007KT 27/09 A299 RMK A01 T02700085  RH  032%=      5-min Rain = 0
KGGS 131535Z 14007KT 27/09 A299 RMK A01 T02720086  RH  032%=      5-min Rain = 0
KGGS 131540Z 14008KT 28/09 A299 RMK A01 T02820087  RH  030%=      5-min Rain = 0
KGGS 131545Z 13008KT 29/09 A299 RMK A01 T02850085  RH  029%=      5-min Rain = 0
KGGS 131550Z 15008KT 29/08 A299 RMK A01 T02880083  RH  028%=      5-min Rain = 0
KGGS 131555Z 15007KT 29/08 A2991 RMK A01 T02880084  RH  029%=      5-min Rain = 0
KGGS 131600Z 14008KT 29/08 A2991 RMK A01 T02880083  RH  028%=      5-min Rain = 0
KGGS 131605Z 15007KT 29/09 A299 RMK A01 T02940085  RH  028%=      5-min Rain = 0
KGGS 131610Z 15008G13KT 30/09 A299 RMK A01 T03000086  RH  027%=      5-min Rain = 0
KGGS 131615Z 15009KT 30/09 A299 RMK A01 T02990085  RH  027%=      5-min Rain = 0
KGGS 131620Z 16007KT 30/09 A299 RMK A01 T02980085  RH  027%=      5-min Rain = 0
KGGS 131625Z 15008KT 30/09 A299 RMK A01 T02980086  RH  027%=      5-min Rain = 0
KGGS 131630Z 15008KT 30/08 A299 RMK A01 T02980084  RH  027%=      5-min Rain = 0
KGGS 131635Z 16008KT 30/09 A299 RMK A01 T03040085  RH  026%=      5-min Rain = 0
KGGS 131640Z 15009KT 31/08 A299 RMK A01 T03060084  RH  026%=      5-min Rain = 0
KGGS 131645Z 14008KT 31/08 A299 RMK A01 T03050084  RH  026%=      5-min Rain = 0
KGGS 131650Z 13008G13KT 30/08 A2989 RMK A01 T03030084  RH  026%=      5-min Rain = 0
KGGS 131655Z 16009KT 31/09 A2989 RMK A01 T03080085  RH  026%=      5-min Rain = 0
KGGS 131700Z 13008KT 31/08 A2989 RMK A01 T03130084  RH  025%=      5-min Rain = 0
KGGS 131705Z 14009KT 32/08 A2989 RMK A01 T03150084  RH  025%=      5-min Rain = 0
KGGS 131710Z 14008G13KT 32/08 A2989 RMK A01 T03190084  RH  024%=      5-min Rain = 0
KGGS 131715Z 14008G14KT 32/09 A2989 RMK A01 T03160085  RH  025%=      5-min Rain = 0
KGGS 131720Z 14009G14KT 32/09 A2988 RMK A01 T03210085  RH  024%=      5-min Rain = 0
KGGS 131725Z 14009G15KT 32/09 A2988 RMK A01 T03220085  RH  024%=      5-min Rain = 0
KGGS 131730Z 14009G14KT 32/09 A2988 RMK A01 T03220085  RH  024%=      5-min Rain = 0
KGGS 131735Z 16008G13KT 33/09 A2988 RMK A01 T03260085  RH  023%=      5-min Rain = 0
KGGS 131740Z 14008KT 33/08 A2988 RMK A01 T03290084  RH  023%=      5-min Rain = 0
KGGS 131745Z 13007G13KT 33/08 A2987 RMK A01 T03270084  RH  023%=      5-min Rain = 0
KGGS 131750Z 12008G13KT 33/09 A2987 RMK A01 T03280086  RH  023%=      5-min Rain = 0
KGGS 131755Z 13009KT 33/09 A2987 RMK A01 T03290085  RH  023%=      5-min Rain = 0
KGGS 131800Z 14008KT 33/09 A2987 RMK A01 T03320086  RH  023%=      5-min Rain = 0
KGGS 131805Z 13008KT 33/09 A2987 RMK A01 T03320086  RH  023%=      5-min Rain = 0
KGGS 131810Z 13008KT 33/09 A2987 RMK A01 T03340087  RH  022%=      5-min Rain = 0
KGGS 131815Z 12008KT 34/09 A2987 RMK A01 T03350086  RH  022%=      5-min Rain = 0
KGGS 131820Z 17009G14KT 34/09 A2987 RMK A01 T03410085  RH  021%=      5-min Rain = 0
KGGS 131825Z 16007G13KT 34/09 A2986 RMK A01 T03380087  RH  022%=      5-min Rain = 0
KGGS 131830Z 15008KT 34/09 A2986 RMK A01 T03410086  RH  021%=      5-min Rain = 0
KGGS 131835Z 12007KT 34/08 A2986 RMK A01 T03380084  RH  022%=      5-min Rain = 0
KGGS 131840Z 14008KT 34/09 A2985 RMK A01 T03410085  RH  021%=      5-min Rain = 0
KGGS 131845Z 15009G14KT 34/09 A2985 RMK A01 T03440085  RH  021%=      5-min Rain = 0
KGGS 131850Z 14008G13KT 34/08 A2985 RMK A01 T03430083  RH  021%=      5-min Rain = 0
KGGS 131855Z 15007KT 35/08 A2985 RMK A01 T03450079  RH  020%=      5-min Rain = 0
KGGS 131900Z 13006G11KT 35/08 A2984 RMK A01 T03450082  RH  020%=      5-min Rain = 0
KGGS 131905Z 15007KT 35/08 A2984 RMK A01 T03470083  RH  020%=      5-min Rain = 0
KGGS 131910Z 13008G14KT 35/08 A2984 RMK A01 T03510083  RH  020%=      5-min Rain = 0
KGGS 131915Z 14006G12KT 35/08 A2984 RMK A01 T03490081  RH  020%=      5-min Rain = 0
KGGS 131920Z 12007KT 35/08 A2983 RMK A01 T03460082  RH  020%=      5-min Rain = 0
KGGS 131925Z 14006G13KT 35/08 A2983 RMK A01 T03490081  RH  020%=      5-min Rain = 0
KGGS 131930Z 14007G13KT 35/08 A2983 RMK A01 T03530081  RH  019%=      5-min Rain = 0
KGGS 131935Z 16009G14KT 36/08 A2982 RMK A01 T03570080  RH  019%=      5-min Rain = 0
KGGS 131940Z 12005G10KT 36/08 A2982 RMK A01 T03560079  RH  019%=      5-min Rain = 0
KGGS 131945Z 13007KT 36/08 A2982 RMK A01 T03570083  RH  019%=      5-min Rain = 0
KGGS 131950Z 18008KT 36/08 A2982 RMK A01 T03620076  RH  018%=      5-min Rain = 0
KGGS 131955Z 19008KT 36/07 A2982 RMK A01 T03590072  RH  018%=      5-min Rain = 0
KGGS 132000Z 15005KT 36/07 A2981 RMK A01 T03590072  RH  018%=      5-min Rain = 0
KGGS 132005Z 16006G22KT 36/07 A2981 RMK A01 T03600073  RH  018%=      5-min Rain = 0
KGGS 132010Z 16007KT 36/07 A2981 RMK A01 T03630071  RH  017%=      5-min Rain = 0
KGGS 132015Z 15006G12KT 36/07 A298 RMK A01 T03610073  RH  018%=      5-min Rain = 0
KGGS 132020Z 15006KT 36/07 A298 RMK A01 T03590073  RH  018%=      5-min Rain = 0
KGGS 132025Z 19008G14KT 37/07 A298 RMK A01 T03650072  RH  017%=      5-min Rain = 0
KGGS 132030Z 19007KT 36/07 A298 RMK A01 T03640071  RH  017%=      5-min Rain = 0
KGGS 132035Z 19004KT 36/07 A298 RMK A01 T03590072  RH  018%=      5-min Rain = 0
KGGS 132040Z 11003G8KT 36/07 A298 RMK A01 T03630070  RH  017%=      5-min Rain = 0
KGGS 132045Z 12006G12KT 36/07 A298 RMK A01 T03620071  RH  017%=      5-min Rain = 0
KGGS 132050Z 12006KT 36/07 A298 RMK A01 T03640072  RH  017%=      5-min Rain = 0
KGGS 132055Z 15006G11KT 37/08 A298 RMK A01 T03710075  RH  017%=      5-min Rain = 0
KGGS 132100Z 15006KT 37/07 A2979 RMK A01 T03730073  RH  016%=      5-min Rain = 0
KGGS 132105Z 14005KT 37/07 A2979 RMK A01 T03700074  RH  017%=      5-min Rain = 0
KGGS 132110Z 14007G12KT 37/07 A2979 RMK A01 T03690071  RH  017%=      5-min Rain = 0
KGGS 132115Z 11008KT 36/07 A2979 RMK A01 T03620069  RH  017%=      5-min Rain = 0
KGGS 132120Z 10004KT 36/07 A2979 RMK A01 T03610070  RH  017%=      5-min Rain = 0
KGGS 132125Z 16007KT 37/07 A2979 RMK A01 T03650070  RH  017%=      5-min Rain = 0
KGGS 132130Z 20003KT 37/07 A2978 RMK A01 T03650069  RH  017%=      5-min Rain = 0
KGGS 132135Z 12006G11KT 36/07 A2978 RMK A01 T03640069  RH  017%=      5-min Rain = 0
KGGS 132140Z 13006KT 37/07 A2978 RMK A01 T03660072  RH  017%=      5-min Rain = 0
KGGS 132145Z 14007G13KT 37/07 A2978 RMK A01 T03690071  RH  017%=      5-min Rain = 0
KGGS 132150Z 15006G13KT 37/07 A2978 RMK A01 T03650070  RH  017%=      5-min Rain = 0
KGGS 132155Z 12007G13KT 36/07 A2978 RMK A01 T03640070  RH  017%=      5-min Rain = 0
KGGS 132200Z 13008G14KT 37/07 A2978 RMK A01 T03660069  RH  017%=      5-min Rain = 0
KGGS 132205Z 15005KT 36/07 A2977 RMK A01 T03630069  RH  017%=      5-min Rain = 0
KGGS 132210Z 12010G19KT 37/07 A2977 RMK A01 T03690070  RH  016%=      5-min Rain = 0
KGGS 132215Z 17010G15KT 37/07 A2977 RMK A01 T03690070  RH  017%=      5-min Rain = 0
KGGS 132220Z 18009G15KT 37/07 A2977 RMK A01 T03680069  RH  016%=      5-min Rain = 0
KGGS 132225Z 16008G13KT 37/07 A2977 RMK A01 T03690068  RH  016%=      5-min Rain = 0
KGGS 132230Z 16007G12KT 37/07 A2977 RMK A01 T03670069  RH  016%=      5-min Rain = 0
KGGS 132235Z 14006KT 37/07 A2977 RMK A01 T03670067  RH  016%=      5-min Rain = 0
KGGS 132240Z 14005G10KT 37/07 A2977 RMK A01 T03650068  RH  017%=      5-min Rain = 0
KGGS 132245Z 13006KT 37/07 A2976 RMK A01 T03660068  RH  016%=      5-min Rain = 0
KGGS 132250Z 14008G13KT 37/07 A2976 RMK A01 T03660070  RH  017%=      5-min Rain = 0
KGGS 132255Z 14007KT 36/07 A2976 RMK A01 T03640069  RH  017%=      5-min Rain = 0
KGGS 132300Z 14006KT 36/07 A2976 RMK A01 T03630068  RH  017%=      5-min Rain = 0
KGGS 132305Z 14006KT 36/07 A2976 RMK A01 T03620068  RH  017%=      5-min Rain = 0
KGGS 132310Z 13005KT 36/07 A2976 RMK A01 T03620069  RH  017%=      5-min Rain = 0
KGGS 132315Z 12004KT 36/07 A2976 RMK A01 T03610070  RH  017%=      5-min Rain = 0
KGGS 132320Z 12007KT 36/08 A2976 RMK A01 T03600075  RH  018%=      5-min Rain = 0
KGGS 132325Z 14009KT 36/07 A2976 RMK A01 T03590074  RH  018%=      5-min Rain = 0
KGGS 132330Z 14007KT 36/08 A2976 RMK A01 T03570076  RH  018%=      5-min Rain = 0
KGGS 132335Z 13008G13KT 36/08 A2976 RMK A01 T03550078  RH  019%=      5-min Rain = 0
KGGS 132340Z 12009KT 35/08 A2976 RMK A01 T03530079  RH  019%=      5-min Rain = 0
KGGS 132345Z 12008KT 35/08 A2976 RMK A01 T03510078  RH  019%=      5-min Rain = 0
KGGS 132350Z 12008KT 35/08 A2977 RMK A01 T03490080  RH  020%=      5-min Rain = 0
KGGS 132355Z 12008KT 35/08 A2977 RMK A01 T03480080  RH  020%=      5-min Rain = 0
KGGS 140000Z 12007KT 35/08 A2977 RMK A01 T03460081  RH  020%=      5-min Rain = 0
KGGS 140005Z 12008KT 35/08 A2977 RMK A01 T03450081  RH  020%=      5-min Rain = 0
KGGS 140010Z 12007KT 34/08 A2977 RMK A01 T03420082  RH  021%=      5-min Rain = 0
KGGS 140015Z 12008KT 34/08 A2977 RMK A01 T03400081  RH  021%=      5-min Rain = 0
KGGS 140020Z 12008KT 34/08 A2977 RMK A01 T03380080  RH  021%=      5-min Rain = 0
KGGS 140025Z 12007KT 34/08 A2977 RMK A01 T03350080  RH  021%=      5-min Rain = 0
KGGS 140030Z 12006KT 33/08 A2977 RMK A01 T03310081  RH  022%=      5-min Rain = 0
KGGS 140035Z 12007KT 33/08 A2977 RMK A01 T03290082  RH  022%=      5-min Rain = 0
KGGS 140040Z 13006KT 32/08 A2977 RMK A01 T03240084  RH  023%=      5-min Rain = 0
KGGS 140045Z 12006KT 32/08 A2977 RMK A01 T03190084  RH  024%=      5-min Rain = 0
KGGS 140050Z 12006KT 32/08 A2977 RMK A01 T03160084  RH  024%=      5-min Rain = 0
KGGS 140055Z 12006KT 31/09 A2977 RMK A01 T03120085  RH  025%=      5-min Rain = 0
KGGS 140100Z 12006KT 31/09 A2977 RMK A01 T03080086  RH  026%=      5-min Rain = 0
KGGS 140105Z 12006KT 30/09 A2977 RMK A01 T03040086  RH  026%=      5-min Rain = 0
KGGS 140110Z 12007KT 30/09 A2977 RMK A01 T03020086  RH  027%=      5-min Rain = 0
KGGS 140115Z 12006KT 30/09 A2978 RMK A01 T03000086  RH  027%=      5-min Rain = 0
KGGS 140120Z 12006KT 30/09 A2978 RMK A01 T02990085  RH  027%=      5-min Rain = 0
KGGS 140125Z 12006KT 30/09 A2978 RMK A01 T02970085  RH  027%=      5-min Rain = 0
KGGS 140130Z 12007KT 30/08 A2978 RMK A01 T02960084  RH  027%=      5-min Rain = 0
KGGS 140135Z 12007KT 30/08 A2978 RMK A01 T02960084  RH  027%=      5-min Rain = 0
KGGS 140140Z 12007KT 30/08 A2978 RMK A01 T02950084  RH  027%=      5-min Rain = 0
KGGS 140145Z 12007KT 29/08 A2979 RMK A01 T02930084  RH  028%=      5-min Rain = 0
KGGS 140150Z 12007KT 29/08 A2979 RMK A01 T02920084  RH  028%=      5-min Rain = 0
KGGS 140155Z 12006KT 29/08 A2979 RMK A01 T02910084  RH  028%=      5-min Rain = 0
KGGS 140200Z 12007KT 29/08 A2979 RMK A01 T02890084  RH  029%=      5-min Rain = 0
KGGS 140205Z 12006KT 29/09 A2979 RMK A01 T02880085  RH  029%=      5-min Rain = 0
KGGS 140210Z 12007KT 29/09 A298 RMK A01 T02860086  RH  030%=      5-min Rain = 0
KGGS 140215Z 12008KT 29/09 A298 RMK A01 T02890087  RH  029%=      5-min Rain = 0
KGGS 140220Z 12007KT 29/09 A298 RMK A01 T02880088  RH  029%=      5-min Rain = 0
KGGS 140225Z 13007KT 29/09 A298 RMK A01 T02870089  RH  030%=      5-min Rain = 0
KGGS 140230Z 13006KT 28/09 A298 RMK A01 T02840089  RH  030%=      5-min Rain = 0
KGGS 140235Z 13006KT 28/09 A298 RMK A01 T02810090  RH  031%=      5-min Rain = 0
KGGS 140240Z 12006KT 28/09 A298 RMK A01 T02770091  RH  032%=      5-min Rain = 0
KGGS 140245Z 13006KT 28/09 A2981 RMK A01 T02750091  RH  032%=      5-min Rain = 0
KGGS 140250Z 13006KT 27/09 A2981 RMK A01 T02730091  RH  033%=      5-min Rain = 0
KGGS 140255Z 13006KT 27/09 A2981 RMK A01 T02710092  RH  033%=      5-min Rain = 0
KGGS 140300Z 13006KT 27/09 A2981 RMK A01 T02680092  RH  034%=      5-min Rain = 0
KGGS 140305Z 13006KT 27/09 A2981 RMK A01 T02660092  RH  034%=      5-min Rain = 0
KGGS 140310Z 13007KT 27/09 A2981 RMK A01 T02650092  RH  035%=      5-min Rain = 0
KGGS 140315Z 13007KT 26/09 A2981 RMK A01 T02640092  RH  035%=      5-min Rain = 0
KGGS 140320Z 13007KT 27/09 A2981 RMK A01 T02660092  RH  034%=      5-min Rain = 0
KGGS 140325Z 13007KT 27/09 A2982 RMK A01 T02670091  RH  034%=      5-min Rain = 0
KGGS 140330Z 13006KT 27/09 A2982 RMK A01 T02660091  RH  034%=      5-min Rain = 0
KGGS 140335Z 13006KT 27/09 A2982 RMK A01 T02650091  RH  034%=      5-min Rain = 0
KGGS 140340Z 13006KT 26/09 A2982 RMK A01 T02640091  RH  035%=      5-min Rain = 0
KGGS 140345Z 13006KT 26/09 A2982 RMK A01 T02630091  RH  035%=      5-min Rain = 0
KGGS 140350Z 13006KT 26/09 A2982 RMK A01 T02630091  RH  035%=      5-min Rain = 0
KGGS 140355Z 13006KT 26/09 A2982 RMK A01 T02630090  RH  035%=      5-min Rain = 0
KGGS 140400Z 13007KT 26/09 A2982 RMK A01 T02620090  RH  035%=      5-min Rain = 0
KGGS 140405Z 13007KT 26/09 A2982 RMK A01 T02620090  RH  035%=      5-min Rain = 0
KGGS 140410Z 13008KT 26/09 A2982 RMK A01 T02640090  RH  035%=      5-min Rain = 0
KGGS 140415Z 13008KT 27/09 A2982 RMK A01 T02670090  RH  034%=      5-min Rain = 0
KGGS 140420Z 13008KT 27/09 A2982 RMK A01 T02670090  RH  034%=      5-min Rain = 0
KGGS 140425Z 13007KT 27/09 A2983 RMK A01 T02660091  RH  034%=      5-min Rain = 0
KGGS 140430Z 13007KT 27/09 A2983 RMK A01 T02650091  RH  034%=      5-min Rain = 0
KGGS 140435Z 13007KT 26/09 A2983 RMK A01 T02630091  RH  035%=      5-min Rain = 0
KGGS 140440Z 13008KT 26/09 A2982 RMK A01 T02620091  RH  035%=      5-min Rain = 0
KGGS 140445Z 13008KT 26/09 A2982 RMK A01 T02610092  RH  035%=      5-min Rain = 0
KGGS 140450Z 13007KT 26/09 A2983 RMK A01 T02600092  RH  036%=      5-min Rain = 0
KGGS 140455Z 13007KT 26/09 A2983 RMK A01 T02580093  RH  036%=      5-min Rain = 0

Page generated in 0.0171 seconds.